Time;durP1;ratioP1;P1;durP2;ratioP2;P2;SDS_P1;SDS_P2;PMS_P1;PMS_P2;Temp;Humidity;BMP_temperature;BMP_pressure;BME280_temperature;BME280_humidity;BME280_pressure;Samples;Min_cycle;Max_cycle;Signal;HPM_P1;HPM_P2
2023/02/01 00:02:05;;;;;;;19.17;2.70;;;;;;;7.31;87.74;99173.97;5052512;28;20037;-69
2023/02/01 00:04:31;;;;;;;15.45;2.22;;;;;;;7.18;89.97;99185.59;5034724;28;20029;-68
2023/02/01 00:06:56;;;;;;;16.90;2.42;;;;;;;7.29;90.01;99192.13;5034592;28;20043;-68
2023/02/01 00:09:21;;;;;;;16.73;2.50;;;;;;;7.27;90.13;99195.00;5051383;28;20044;-68
2023/02/01 00:11:47;;;;;;;17.30;2.20;;;;;;;7.15;90.41;99196.75;5050549;28;20094;-68
2023/02/01 00:14:13;;;;;;;18.98;2.53;;;;;;;7.24;89.48;99202.63;5033705;28;20036;-68
2023/02/01 00:16:38;;;;;;;11.68;1.85;;;;;;;7.06;90.25;99182.81;5050188;28;20511;-69
2023/02/01 00:19:14;;;;;;;25.02;3.90;;;;;;;7.26;89.80;99204.06;5052220;28;20508;-69
2023/02/01 00:21:40;;;;;;;11.45;2.13;;;;;;;7.09;89.98;99199.47;5051890;28;20041;-68
2023/02/01 00:24:06;;;;;;;17.02;3.03;;;;;;;7.11;89.85;99192.03;5052255;28;20056;-68
2023/02/01 00:26:34;;;;;;;22.80;3.08;;;;;;;7.20;89.44;99204.09;5052690;28;20029;-69
2023/02/01 00:29:01;;;;;;;20.15;2.70;;;;;;;7.19;89.17;99213.19;5052304;28;20356;-69
2023/02/01 00:31:26;;;;;;;22.92;3.63;;;;;;;7.09;89.36;99194.13;5054646;28;20438;-69
2023/02/01 00:33:52;;;;;;;25.85;3.38;;;;;;;7.04;89.22;99176.84;5053303;28;20033;-68
2023/02/01 00:36:17;;;;;;;22.70;3.35;;;;;;;7.17;89.98;99193.84;5035845;28;20101;-68
2023/02/01 00:38:43;;;;;;;16.05;2.53;;;;;;;7.15;89.62;99186.03;5055570;28;20048;-68
2023/02/01 00:41:14;;;;;;;12.68;2.10;;;;;;;7.16;88.89;99184.19;5053468;28;20494;-69
2023/02/01 00:43:40;;;;;;;16.35;2.67;;;;;;;7.28;87.66;99195.81;5054602;28;20024;-69
2023/02/01 00:46:06;;;;;;;20.08;3.50;;;;;;;7.19;88.22;99195.25;5053870;28;20551;-68
2023/02/01 00:48:32;;;;;;;18.85;2.50;;;;;;;7.21;88.91;99195.03;5053036;28;20439;-68
2023/02/01 00:51:03;;;;;;;19.77;3.03;;;;;;;7.12;88.33;99190.97;5053709;28;20040;-68
2023/02/01 00:53:29;;;;;;;26.20;3.45;;;;;;;7.31;87.49;99190.03;5053874;28;20029;-69
2023/02/01 00:55:56;;;;;;;16.98;3.22;;;;;;;7.40;87.64;99191.41;5055529;28;20136;-69
2023/02/01 00:58:23;;;;;;;17.50;2.60;;;;;;;7.24;88.20;99200.78;5055373;28;20033;-69
2023/02/01 01:00:49;;;;;;;16.25;3.15;;;;;;;7.37;86.82;99202.53;5053977;28;20079;-69
2023/02/01 01:03:17;;;;;;;14.73;2.00;;;;;;;7.46;86.19;99193.22;5055355;28;20365;-68
2023/02/01 01:05:49;;;;;;;13.73;2.22;;;;;;;7.15;86.85;99158.44;5054306;28;20078;-68
2023/02/01 01:08:15;;;;;;;21.17;2.72;;;;;;;7.39;87.37;99196.97;5054720;28;20095;-69
2023/02/01 01:10:41;;;;;;;21.83;2.70;;;;;;;7.43;87.59;99193.63;5055483;28;20483;-68
2023/02/01 01:13:07;;;;;;;21.42;3.47;;;;;;;7.39;87.74;99200.47;5053979;28;20036;-68
2023/02/01 01:15:39;;;;;;;17.70;2.78;;;;;;;7.42;88.35;99197.38;5054773;28;20470;-68
2023/02/01 01:18:06;;;;;;;20.65;3.30;;;;;;;7.47;87.82;99200.19;5055154;28;20033;-68
2023/02/01 01:20:34;;;;;;;13.65;2.38;;;;;;;7.50;87.47;99189.06;5055072;28;20049;-68
2023/02/01 01:22:59;;;;;;;18.45;2.67;;;;;;;7.48;87.52;99193.81;5037623;28;20021;-68
2023/02/01 01:25:25;;;;;;;17.27;2.55;;;;;;;7.52;87.24;99200.38;5055934;28;20029;-69
2023/02/01 01:27:50;;;;;;;20.67;3.15;;;;;;;7.54;87.24;99194.78;5038519;28;20091;-69
2023/02/01 01:30:16;;;;;;;17.90;2.53;;;;;;;7.44;87.31;99189.91;5056053;28;20025;-69
2023/02/01 01:32:41;;;;;;;17.05;4.00;;;;;;;7.53;87.16;99196.66;5055811;28;20124;-68
2023/02/01 01:35:07;;;;;;;18.02;2.72;;;;;;;7.35;87.52;99187.72;5054120;28;20025;-68
2023/02/01 01:37:33;;;;;;;21.27;3.75;;;;;;;7.39;87.31;99192.44;5054771;28;20078;-68
2023/02/01 01:39:59;;;;;;;19.35;3.35;;;;;;;7.61;85.99;99205.44;5054062;28;20025;-68
2023/02/01 01:42:24;;;;;;;17.35;2.40;;;;;;;7.48;86.08;99201.84;5036202;28;20546;-68
2023/02/01 01:45:12;;;;;;;13.77;2.50;;;;;;;7.63;85.21;99203.38;5054584;28;20270;-69
2023/02/01 01:47:42;;;;;;;12.43;2.80;;;;;;;7.51;85.40;99177.28;5054479;28;20123;-68
2023/02/01 01:50:16;;;;;;;21.02;2.85;;;;;;;7.63;85.44;99206.03;5054291;28;20082;-68
2023/02/01 01:52:46;;;;;;;20.17;2.60;;;;;;;7.57;86.04;99209.59;5054125;28;20057;-68
2023/02/01 01:55:14;;;;;;;19.40;3.53;;;;;;;7.64;86.15;99242.47;5053426;28;20111;-68
2023/02/01 01:57:45;;;;;;;21.65;3.55;;;;;;;7.81;85.82;99237.38;5054208;28;20336;-68
2023/02/01 02:00:14;;;;;;;19.17;3.63;;;;;;;7.83;85.63;99249.53;5054477;28;20368;-68
2023/02/01 02:02:42;;;;;;;23.10;3.70;;;;;;;7.80;86.04;99241.94;5061439;28;20111;-68
2023/02/01 02:05:08;;;;;;;19.48;3.53;;;;;;;7.68;85.95;99251.69;5054610;28;20023;-68
2023/02/01 02:07:39;;;;;;;21.17;3.75;;;;;;;7.83;84.97;99244.16;5053052;28;20036;-68
2023/02/01 02:10:07;;;;;;;20.58;3.50;;;;;;;7.54;83.68;99166.16;5054439;28;20031;-68
2023/02/01 02:12:33;;;;;;;21.23;2.97;;;;;;;7.84;85.14;99232.41;5051863;28;20492;-68
2023/02/01 02:14:59;;;;;;;18.85;2.78;;;;;;;7.76;86.42;99246.09;5053548;28;20052;-68
2023/02/01 02:17:49;;;;;;;25.38;3.55;;;;;;;7.96;85.73;99240.56;5055194;28;20064;-68
2023/02/01 02:20:27;;;;;;;17.90;3.28;;;;;;;7.81;86.14;99238.19;5054295;28;20032;-68
2023/02/01 02:22:52;;;;;;;24.65;3.95;;;;;;;7.77;86.19;99239.69;5054196;28;20039;-68
2023/02/01 02:26:00;;;;;;;33.10;4.63;;;;;;;7.87;85.95;99223.94;5053598;28;20056;-68
2023/02/01 02:28:53;;;;;;;22.73;4.30;;;;;;;7.90;86.05;99239.56;5053039;28;20440;-69
2023/02/01 02:31:42;;;;;;;17.40;2.67;;;;;;;7.88;86.39;99236.31;5051370;28;20484;-69
2023/02/01 02:34:13;;;;;;;16.92;2.95;;;;;;;7.84;85.76;99228.91;5052453;28;20219;-68
2023/02/01 02:36:46;;;;;;;25.77;3.60;;;;;;;7.83;85.49;99230.78;5052292;28;20029;-68
2023/02/01 02:39:58;;;;;;;25.30;4.18;;;;;;;7.94;84.17;99227.38;5053615;28;20085;-68
2023/02/01 02:48:40;;;;;;;22.75;3.30;;;;;;;7.83;82.86;99213.91;5053235;28;20545;-68
2023/02/01 02:54:51;;;;;;;34.30;4.45;;;;;;;7.91;85.04;99211.78;5010213;28;20095;-68
2023/02/01 03:05:53;;;;;;;29.30;5.47;;;;;;;7.97;84.52;99224.25;5054344;28;20498;-68
2023/02/01 03:08:27;;;;;;;29.42;4.25;;;;;;;8.04;84.92;99226.06;5053135;28;20055;-68
2023/02/01 03:11:10;;;;;;;27.40;4.47;;;;;;;7.94;85.33;99216.66;5053796;28;20044;-68
2023/02/01 03:13:43;;;;;;;18.80;3.40;;;;;;;8.01;85.51;99219.28;5054254;28;20594;-68
2023/02/01 03:16:35;;;;;;;24.00;3.92;;;;;;;7.88;85.16;99214.03;5058780;28;20028;-68
2023/02/01 03:19:00;;;;;;;19.50;4.30;;;;;;;7.93;84.94;99215.03;5051840;28;20035;-68
2023/02/01 03:21:31;;;;;;;25.25;4.15;;;;;;;8.02;84.52;99220.13;5053778;28;20045;-68
2023/02/01 03:24:02;;;;;;;41.15;6.32;;;;;;;7.80;85.27;99204.44;5051979;28;20035;-68
2023/02/01 03:26:30;;;;;;;31.33;4.85;;;;;;;8.09;84.04;99216.31;5052382;28;20480;-69
2023/02/01 03:29:02;;;;;;;41.28;6.90;;;;;;;7.99;85.10;99219.50;5052689;28;20391;-68
2023/02/01 03:31:28;;;;;;;34.30;5.65;;;;;;;8.05;85.65;99214.31;5051410;28;20031;-68
2023/02/01 03:33:54;;;;;;;38.67;5.68;;;;;;;7.92;86.23;99218.75;5034381;28;20032;-68
2023/02/01 03:37:01;;;;;;;39.72;5.55;;;;;;;7.96;85.66;99225.31;5052550;28;20037;-68
2023/02/01 03:39:39;;;;;;;34.92;5.68;;;;;;;8.07;85.05;99198.81;5010648;28;20110;-68
2023/02/01 03:42:12;;;;;;;39.40;5.97;;;;;;;7.90;84.61;99195.91;4992377;28;20022;-68
2023/02/01 03:44:55;;;;;;;38.25;5.57;;;;;;;8.12;84.46;99228.47;5026509;28;20028;-68
2023/02/01 03:47:25;;;;;;;29.30;4.72;;;;;;;7.90;84.45;99228.84;5050671;28;20041;-68
2023/02/01 03:49:55;;;;;;;32.97;5.20;;;;;;;7.93;83.14;99238.31;5052225;28;20036;-68
2023/02/01 03:52:44;;;;;;;29.98;5.07;;;;;;;7.84;82.66;99243.13;5050522;28;20107;-68
2023/02/01 03:55:12;;;;;;;20.70;3.33;;;;;;;7.92;82.11;99234.81;5051883;28;20452;-68
2023/02/01 03:57:54;;;;;;;20.98;3.97;;;;;;;7.90;81.72;99207.44;5050907;28;20029;-69
2023/02/01 04:00:23;;;;;;;23.88;4.63;;;;;;;8.13;81.46;99232.78;5052731;28;20029;-68
2023/02/01 04:02:49;;;;;;;30.15;4.50;;;;;;;8.05;82.19;99225.03;5052179;28;20047;-69
2023/02/01 04:05:15;;;;;;;21.80;3.28;;;;;;;7.87;81.85;99204.38;5053740;28;20044;-68
2023/02/01 04:07:41;;;;;;;41.58;5.18;;;;;;;8.22;80.64;99218.03;5056344;28;20020;-68
2023/02/01 04:10:07;;;;;;;36.20;5.20;;;;;;;8.03;80.70;99219.88;5022027;28;20027;-68
2023/02/01 04:12:33;;;;;;;30.98;4.95;;;;;;;8.14;80.04;99211.09;5055098;28;20025;-68
2023/02/01 04:14:58;;;;;;;30.98;5.20;;;;;;;8.16;80.74;99208.22;5055204;28;20079;-68
2023/02/01 04:17:23;;;;;;;31.52;4.50;;;;;;;8.16;81.11;99218.94;5056146;28;20103;-68
2023/02/01 04:19:49;;;;;;;19.90;3.92;;;;;;;7.80;82.27;99180.34;5056250;28;20039;-68
2023/02/01 04:22:14;;;;;;;36.03;5.88;;;;;;;8.07;81.84;99204.19;5054512;28;20055;-68
2023/02/01 04:24:40;;;;;;;31.45;4.82;;;;;;;7.94;81.99;99194.41;5055071;28;20549;-68
2023/02/01 04:27:05;;;;;;;26.83;4.53;;;;;;;7.95;81.90;99191.53;5058734;28;20037;-68
2023/02/01 04:29:31;;;;;;;23.52;4.18;;;;;;;8.07;80.35;99215.72;5064446;28;20092;-68
2023/02/01 04:31:56;;;;;;;31.38;4.10;;;;;;;8.10;79.35;99211.78;5055009;28;20029;-68
2023/02/01 04:34:22;;;;;;;26.67;3.83;;;;;;;8.07;79.46;99209.53;5055220;28;20044;-68
2023/02/01 04:36:48;;;;;;;32.38;5.13;;;;;;;8.06;80.14;99199.88;5038737;28;20090;-68
2023/02/01 04:39:13;;;;;;;35.53;5.82;;;;;;;8.03;80.44;99203.81;5054455;28;20028;-68
2023/02/01 04:41:39;;;;;;;26.17;4.07;;;;;;;8.11;80.04;99203.53;5054764;28;20044;-68
2023/02/01 04:44:04;;;;;;;30.50;4.88;;;;;;;8.11;80.44;99197.34;5055639;28;20438;-68
2023/02/01 04:46:29;;;;;;;36.40;5.88;;;;;;;8.25;79.71;99193.50;5056571;28;20492;-68
2023/02/01 04:48:55;;;;;;;38.10;5.38;;;;;;;8.22;81.19;99191.25;5054987;28;20056;-68
2023/02/01 04:51:20;;;;;;;36.80;5.60;;;;;;;8.08;82.33;99179.03;5056796;28;20087;-68
2023/02/01 04:53:46;;;;;;;40.80;5.70;;;;;;;8.28;81.59;99194.88;5055875;28;20075;-68
2023/02/01 04:56:11;;;;;;;45.40;5.70;;;;;;;8.07;82.58;99190.78;5037511;28;20021;-66
2023/02/01 04:58:37;;;;;;;32.95;5.10;;;;;;;7.96;82.21;99185.13;5053207;28;20391;-68
2023/02/01 05:01:04;;;;;;;33.78;4.57;;;;;;;7.97;81.09;99180.59;5055282;28;20070;-66
2023/02/01 05:03:30;;;;;;;30.83;4.10;;;;;;;8.05;80.69;99180.31;5053817;28;20025;-68
2023/02/01 05:05:56;;;;;;;36.72;5.47;;;;;;;7.90;81.44;99183.31;5037402;28;20527;-67
2023/02/01 05:08:22;;;;;;;37.15;5.78;;;;;;;8.08;82.04;99192.41;5037259;28;20065;-67
2023/02/01 05:10:48;;;;;;;39.65;6.55;;;;;;;7.94;83.48;99197.91;5053653;28;20037;-66
2023/02/01 05:15:57;;;;;;;33.08;4.78;;;;;;;7.91;83.49;99197.53;5052815;28;20048;-68
2023/02/01 05:18:22;;;;;;;34.15;4.80;;;;;;;7.98;82.67;99195.63;5053614;28;20408;-67
2023/02/01 05:20:48;;;;;;;28.83;5.43;;;;;;;7.91;83.33;99200.22;5054390;28;20085;-69
2023/02/01 05:23:13;;;;;;;30.50;4.97;;;;;;;7.95;82.79;99201.44;5054921;28;20060;-67
2023/02/01 05:25:39;;;;;;;29.00;4.50;;;;;;;7.80;83.63;99199.09;5036187;28;20404;-68
2023/02/01 05:28:04;;;;;;;23.60;3.25;;;;;;;7.97;83.37;99200.16;5055073;28;20020;-66
2023/02/01 05:30:29;;;;;;;32.00;4.82;;;;;;;7.93;83.96;99192.78;5053716;28;20037;-66
2023/02/01 05:32:55;;;;;;;37.05;5.55;;;;;;;7.84;84.50;99194.91;5054247;28;20065;-67
2023/02/01 05:35:20;;;;;;;35.42;4.30;;;;;;;7.64;83.32;99175.56;5053215;28;20036;-67
2023/02/01 05:37:46;;;;;;;28.02;4.85;;;;;;;7.87;81.56;99188.31;5052926;28;20036;-67
2023/02/01 05:40:11;;;;;;;20.98;3.63;;;;;;;7.67;81.54;99178.59;5060294;28;20032;-66
2023/02/01 05:42:37;;;;;;;25.40;4.60;;;;;;;7.80;80.76;99191.06;5057404;28;20036;-66
2023/02/01 05:45:04;;;;;;;25.55;3.72;;;;;;;7.87;80.21;99188.31;5054272;28;20037;-66
2023/02/01 05:47:30;;;;;;;24.65;3.60;;;;;;;7.77;80.96;99189.63;5054957;28;20090;-67
2023/02/01 05:49:56;;;;;;;24.42;3.75;;;;;;;7.82;80.71;99185.50;5054731;28;20468;-67
2023/02/01 05:52:21;;;;;;;21.75;3.33;;;;;;;7.69;79.90;99154.31;5052961;28;20041;-67
2023/02/01 05:54:47;;;;;;;23.70;3.97;;;;;;;7.82;80.52;99172.91;5052982;28;20136;-68
2023/02/01 05:57:13;;;;;;;21.40;3.67;;;;;;;7.72;81.14;99175.28;5052818;28;20102;-67
2023/02/01 05:59:44;;;;;;;28.33;4.80;;;;;;;7.80;80.60;99166.94;5054852;28;20033;-67
2023/02/01 06:02:11;;;;;;;23.40;4.03;;;;;;;7.92;80.88;99177.78;5053009;28;20640;-66
2023/02/01 06:04:36;;;;;;;28.05;3.92;;;;;;;7.93;81.26;99180.22;5052366;28;20048;-67
2023/02/01 06:07:02;;;;;;;31.33;4.80;;;;;;;7.98;80.82;99174.22;5052082;28;20029;-66
2023/02/01 06:09:28;;;;;;;30.77;5.03;;;;;;;7.95;81.72;99172.78;5051344;28;20056;-66
2023/02/01 06:11:54;;;;;;;25.63;4.55;;;;;;;8.04;82.36;99175.97;5050136;28;20025;-67
2023/02/01 06:14:19;;;;;;;37.50;4.93;;;;;;;7.94;83.05;99160.41;5034143;28;20032;-66
2023/02/01 06:16:46;;;;;;;38.58;5.32;;;;;;;8.01;82.99;99168.38;5051682;28;20025;-66
2023/02/01 06:19:12;;;;;;;36.72;6.47;;;;;;;7.89;84.02;99176.34;5052403;28;20031;-67
2023/02/01 06:21:37;;;;;;;37.05;5.22;;;;;;;7.93;83.74;99145.41;5052947;28;20092;-66
2023/02/01 06:24:03;;;;;;;33.92;5.18;;;;;;;7.86;84.26;99154.53;5055267;28;20557;-66
2023/02/01 06:26:29;;;;;;;32.17;5.65;;;;;;;7.70;85.31;99169.31;5054305;28;20096;-66
2023/02/01 06:28:55;;;;;;;23.98;3.92;;;;;;;7.70;83.64;99164.78;5054413;28;20035;-66
2023/02/01 06:31:21;;;;;;;18.65;3.25;;;;;;;7.74;82.16;99167.84;5053990;28;20032;-67
2023/02/01 06:33:47;;;;;;;24.10;4.20;;;;;;;7.75;80.89;99177.53;5053627;28;20040;-66
2023/02/01 06:36:12;;;;;;;17.30;2.72;;;;;;;7.53;80.53;99137.75;5053359;28;20037;-66
2023/02/01 06:38:38;;;;;;;14.23;3.03;;;;;;;7.92;80.22;99180.44;5052388;28;20044;-66
2023/02/01 06:41:04;;;;;;;25.50;4.22;;;;;;;7.71;81.27;99184.34;5052225;28;20029;-67
2023/02/01 06:43:32;;;;;;;16.23;3.13;;;;;;;7.72;80.88;99186.00;5053683;28;20083;-67
2023/02/01 06:46:03;;;;;;;18.30;3.20;;;;;;;7.59;80.29;99178.91;5053389;28;20032;-67
2023/02/01 06:48:33;;;;;;;18.42;2.85;;;;;;;7.84;79.14;99196.78;5053474;28;20028;-67
2023/02/01 06:50:59;;;;;;;33.75;3.30;;;;;;;7.69;79.35;99183.75;5036424;28;20127;-67
2023/02/01 06:53:25;;;;;;;20.63;3.55;;;;;;;7.67;78.40;99177.78;5052373;28;20111;-66
2023/02/01 06:56:02;;;;;;;30.90;4.47;;;;;;;7.60;79.06;99193.91;5052996;28;20025;-67
2023/02/01 06:58:33;;;;;;;22.95;3.38;;;;;;;7.72;79.10;99197.53;5049584;28;20430;-67
2023/02/01 07:01:06;;;;;;;23.15;3.95;;;;;;;7.76;79.23;99176.47;5049398;28;20029;-67
2023/02/01 07:03:32;;;;;;;30.88;5.03;;;;;;;7.77;81.03;99199.53;5051395;28;20442;-66
2023/02/01 07:06:00;;;;;;;35.17;5.38;;;;;;;7.93;81.74;99196.28;5050416;28;20045;-67
2023/02/01 07:08:30;;;;;;;34.67;5.00;;;;;;;7.72;83.63;99202.88;5049001;28;20437;-66
2023/02/01 07:10:56;;;;;;;30.00;5.40;;;;;;;7.50;84.75;99175.66;5050866;28;20025;-67
2023/02/01 07:13:22;;;;;;;23.08;4.13;;;;;;;7.57;84.32;99196.22;5050543;28;20025;-67
2023/02/01 07:15:47;;;;;;;18.77;3.03;;;;;;;7.56;84.16;99203.41;5051176;28;20064;-67
2023/02/01 07:18:16;;;;;;;20.70;2.88;;;;;;;7.61;82.69;99184.03;5050777;28;20036;-66
2023/02/01 07:20:42;;;;;;;15.00;2.90;;;;;;;7.50;82.65;99194.41;5051321;28;20053;-67
2023/02/01 07:23:11;;;;;;;18.80;2.65;;;;;;;7.67;81.68;99193.84;5050521;28;20704;-67
2023/02/01 07:25:36;;;;;;;22.88;2.97;;;;;;;7.67;81.35;99178.59;5051261;28;20021;-67
2023/02/01 07:28:02;;;;;;;21.77;3.55;;;;;;;7.69;81.42;99195.28;5052079;28;20395;-67
2023/02/01 07:30:27;;;;;;;27.15;4.88;;;;;;;7.59;81.76;99186.13;5050983;28;20675;-68
2023/02/01 07:32:53;;;;;;;20.92;4.00;;;;;;;7.42;81.94;99167.94;5052934;28;20475;-68
2023/02/01 07:35:18;;;;;;;21.42;3.13;;;;;;;7.61;81.77;99194.72;5051606;28;20029;-69
2023/02/01 07:37:44;;;;;;;26.70;3.30;;;;;;;7.68;81.03;99198.16;5051944;28;20369;-69
2023/02/01 07:40:10;;;;;;;17.35;3.13;;;;;;;7.56;81.10;99192.72;5057350;28;20222;-69
2023/02/01 07:42:35;;;;;;;14.40;2.97;;;;;;;7.54;80.71;99203.63;5058397;28;20039;-69
2023/02/01 07:45:02;;;;;;;25.88;3.58;;;;;;;7.61;80.50;99195.53;5041253;28;20356;-69
2023/02/01 07:47:28;;;;;;;18.48;3.47;;;;;;;7.57;81.00;99207.72;5041267;28;20053;-69
2023/02/01 07:49:53;;;;;;;25.10;4.32;;;;;;;7.49;80.66;99198.13;5057161;28;20078;-68
2023/02/01 07:52:18;;;;;;;24.65;3.47;;;;;;;7.59;79.79;99188.78;5057439;28;20091;-68
2023/02/01 07:54:44;;;;;;;18.20;3.00;;;;;;;7.50;80.08;99190.91;5058183;28;20116;-69
2023/02/01 07:57:11;;;;;;;16.83;3.13;;;;;;;7.63;79.43;99184.63;5057900;28;20036;-69
2023/02/01 08:01:19;;;;;;;27.30;4.63;;;;;;;7.79;78.10;99184.06;5058910;28;20412;-69
2023/02/01 08:02:22;;;;;;;25.77;3.05;;;;;;;7.72;78.13;99180.63;5058855;28;20029;-68
2023/02/01 08:04:48;;;;;;;27.35;3.85;;;;;;;7.67;77.40;99157.19;5057494;28;20027;-69
2023/02/01 08:07:14;;;;;;;13.15;2.63;;;;;;;7.59;78.31;99170.06;5059156;28;20136;-68
2023/02/01 08:09:39;;;;;;;18.13;3.17;;;;;;;7.70;77.06;99180.03;5058102;28;20036;-69
2023/02/01 08:12:05;;;;;;;22.60;3.33;;;;;;;7.77;77.34;99181.59;5058148;28;20037;-69
2023/02/01 08:14:30;;;;;;;29.20;3.95;;;;;;;7.92;76.77;99183.94;5041128;28;20052;-69
2023/02/01 08:16:56;;;;;;;20.65;3.03;;;;;;;7.75;77.03;99169.50;5058581;28;20031;-68
2023/02/01 08:19:21;;;;;;;25.48;3.20;;;;;;;7.97;77.01;99183.25;5057230;28;20032;-69
2023/02/01 08:21:48;;;;;;;23.98;3.95;;;;;;;8.06;76.38;99181.94;5057802;28;20057;-69
2023/02/01 08:24:14;;;;;;;21.67;3.60;;;;;;;7.83;76.63;99153.13;5059391;28;20032;-69
2023/02/01 08:26:39;;;;;;;23.98;3.97;;;;;;;8.05;76.55;99184.84;5058803;28;20055;-69
2023/02/01 08:29:08;;;;;;;19.92;3.10;;;;;;;7.95;77.08;99180.81;5057314;28;20053;-69
2023/02/01 08:31:34;;;;;;;27.60;3.75;;;;;;;8.12;76.45;99183.72;5058784;28;20032;-68
2023/02/01 08:34:03;;;;;;;24.92;3.90;;;;;;;8.06;76.54;99163.19;5058186;28;20029;-68
2023/02/01 08:36:30;;;;;;;24.75;4.15;;;;;;;8.23;77.17;99180.28;5059348;28;20479;-69
2023/02/01 08:38:56;;;;;;;24.48;3.95;;;;;;;8.18;77.87;99155.25;5058140;28;20082;-68
2023/02/01 08:41:28;;;;;;;27.52;3.63;;;;;;;8.22;78.29;99178.66;5059255;28;20029;-69
2023/02/01 08:43:54;;;;;;;25.25;4.22;;;;;;;8.19;78.91;99171.06;5059286;28;20392;-69
2023/02/01 08:46:21;;;;;;;23.88;3.35;;;;;;;8.16;80.09;99174.19;5059275;28;20029;-69
2023/02/01 08:48:47;;;;;;;39.30;4.95;;;;;;;8.17;80.92;99177.69;5058641;28;20558;-69
2023/02/01 08:51:14;;;;;;;34.30;5.03;;;;;;;8.23;81.18;99177.63;5053387;28;20067;-69
2023/02/01 08:53:41;;;;;;;28.13;5.40;;;;;;;8.24;81.58;99181.09;5055557;28;20505;-69
2023/02/01 08:56:07;;;;;;;34.60;4.65;;;;;;;8.21;81.78;99182.41;5054130;28;20501;-69
2023/02/01 08:58:33;;;;;;;27.25;4.78;;;;;;;8.15;82.41;99183.28;5055403;28;20486;-68
2023/02/01 09:01:18;;;;;;;40.47;5.03;;;;;;;8.29;81.86;99185.81;5055542;28;20029;-68
2023/02/01 09:03:43;;;;;;;41.97;6.00;;;;;;;8.35;81.75;99185.75;5055409;28;20036;-69
2023/02/01 09:06:12;;;;;;;36.10;5.63;;;;;;;8.28;82.20;99182.31;5054137;28;20052;-68
2023/02/01 09:08:39;;;;;;;25.58;4.35;;;;;;;8.11;83.45;99183.94;5055236;28;20029;-68
2023/02/01 09:11:11;;;;;;;25.40;4.95;;;;;;;8.09;84.65;99189.53;5054124;28;20098;-69
2023/02/01 09:13:37;;;;;;;33.47;6.32;;;;;;;8.23;83.66;99187.53;5055300;28;20033;-69
2023/02/01 09:16:03;;;;;;;26.10;4.25;;;;;;;8.22;83.28;99177.84;5053790;28;20044;-68
2023/02/01 09:18:28;;;;;;;32.20;4.60;;;;;;;8.47;82.40;99188.50;5054571;28;20123;-68
2023/02/01 09:20:54;;;;;;;27.65;3.83;;;;;;;8.40;82.74;99180.53;5052864;28;20147;-69
2023/02/01 09:23:22;;;;;;;24.70;3.97;;;;;;;8.32;84.14;99194.22;5052976;28;20033;-68
2023/02/01 09:25:50;;;;;;;26.25;4.97;;;;;;;8.31;83.95;99173.00;5053446;28;20052;-68
2023/02/01 09:28:16;;;;;;;25.85;3.90;;;;;;;8.37;83.84;99199.72;5054680;28;20033;-69
2023/02/01 09:30:41;;;;;;;31.80;4.55;;;;;;;8.40;83.23;99190.44;5037055;28;20029;-68
2023/02/01 09:33:07;;;;;;;29.75;5.35;;;;;;;8.37;83.94;99194.34;5037332;28;20044;-68
2023/02/01 09:35:32;;;;;;;35.17;5.20;;;;;;;8.32;83.45;99172.78;5053534;28;20446;-68
2023/02/01 09:37:57;;;;;;;33.40;5.45;;;;;;;8.35;83.75;99183.06;5054636;28;20032;-68
2023/02/01 09:40:23;;;;;;;33.80;4.95;;;;;;;8.49;83.88;99189.09;5052875;28;20512;-68
2023/02/01 09:43:07;;;;;;;33.63;5.55;;;;;;;8.44;83.75;99197.84;5053477;28;20079;-68
2023/02/01 09:45:50;;;;;;;25.52;4.72;;;;;;;8.46;83.85;99190.38;5054097;28;20115;-68
2023/02/01 09:48:21;;;;;;;31.08;4.65;;;;;;;8.42;84.71;99189.19;5054892;28;20025;-68
2023/02/01 09:50:55;;;;;;;39.35;6.38;;;;;;;8.62;84.06;99190.81;5053371;28;20142;-68
2023/02/01 09:53:32;;;;;;;35.10;5.80;;;;;;;8.53;84.81;99192.97;5053511;28;20041;-68
2023/02/01 09:56:06;;;;;;;35.17;5.60;;;;;;;8.53;83.62;99176.06;5054415;28;20029;-68
2023/02/01 09:58:37;;;;;;;27.73;4.15;;;;;;;8.57;83.06;99190.66;5053745;28;20575;-68
2023/02/01 10:01:10;;;;;;;24.85;4.38;;;;;;;8.63;82.51;99195.13;5053876;28;20033;-68
2023/02/01 10:03:36;;;;;;;31.70;5.95;;;;;;;8.44;84.24;99189.78;5055547;28;20032;-68
2023/02/01 10:06:27;;;;;;;38.75;5.30;;;;;;;8.57;83.82;99194.16;5054908;28;20087;-68
2023/02/01 10:09:09;;;;;;;33.67;5.43;;;;;;;8.57;84.10;99186.09;5052999;28;20071;-68
2023/02/01 10:12:07;;;;;;;24.15;4.20;;;;;;;8.41;85.06;99173.31;5053980;28;20045;-68
2023/02/01 10:14:51;;;;;;;39.95;5.10;;;;;;;8.51;84.82;99194.22;5053703;28;20025;-68
2023/02/01 10:17:25;;;;;;;30.90;4.88;;;;;;;8.50;85.74;99201.47;5054239;28;20083;-69
2023/02/01 10:20:28;;;;;;;36.45;5.90;;;;;;;8.62;84.72;99199.66;5052751;28;20025;-68
2023/02/01 10:23:08;;;;;;;30.40;4.97;;;;;;;8.57;84.96;99188.78;5034871;28;20587;-68
2023/02/01 10:25:41;;;;;;;23.48;3.60;;;;;;;8.59;84.97;99200.13;5053842;28;20122;-68
2023/02/01 10:28:15;;;;;;;34.95;5.05;;;;;;;8.64;84.71;99188.69;5052498;28;20029;-69
2023/02/01 10:30:45;;;;;;;40.55;4.30;;;;;;;8.54;85.47;99199.13;5053530;28;20032;-68
2023/02/01 10:33:26;;;;;;;30.10;4.32;;;;;;;8.56;85.27;99200.56;5053517;28;20025;-69
2023/02/01 10:36:03;;;;;;;29.33;4.32;;;;;;;8.64;85.24;99199.41;5053306;28;20155;-68
2023/02/01 10:38:29;;;;;;;40.75;5.53;;;;;;;8.35;86.71;99182.25;5052938;28;20846;-68
2023/02/01 10:41:00;;;;;;;35.42;6.65;;;;;;;8.59;86.27;99204.66;5051729;28;20033;-69
2023/02/01 10:43:26;;;;;;;53.20;7.10;;;;;;;8.45;87.03;99210.19;5052064;28;20017;-68
2023/02/01 10:45:51;;;;;;;41.38;6.35;;;;;;;8.63;86.63;99198.59;5052331;28;20128;-68
2023/02/01 10:48:17;;;;;;;39.67;5.90;;;;;;;8.78;85.67;99214.31;5052097;28;20025;-68
2023/02/01 10:51:25;;;;;;;41.80;5.13;;;;;;;8.83;86.54;99208.25;5053335;28;20044;-68
2023/02/01 10:53:55;;;;;;;34.25;6.30;;;;;;;8.76;86.76;99207.53;5032623;28;20140;-69
2023/02/01 10:56:23;;;;;;;39.17;6.03;;;;;;;8.80;87.30;99212.22;5053440;28;20060;-68
2023/02/01 10:58:49;;;;;;;41.03;5.55;;;;;;;8.78;87.09;99211.63;5052319;28;20103;-68
2023/02/01 11:01:23;;;;;;;42.75;6.55;;;;;;;8.99;86.21;99209.50;5051467;28;20502;-69
2023/02/01 11:03:55;;;;;;;38.50;6.30;;;;;;;8.58;88.73;99192.31;5052223;28;20017;-68
2023/02/01 11:06:31;;;;;;;45.60;7.00;;;;;;;9.00;87.12;99211.13;5054179;28;20057;-68
2023/02/01 11:09:10;;;;;;;46.92;6.45;;;;;;;8.99;87.37;99215.69;5053342;28;20075;-69
2023/02/01 11:11:47;;;;;;;45.05;6.07;;;;;;;9.11;86.39;99205.81;5052030;28;20021;-69
2023/02/01 11:14:25;;;;;;;44.20;6.80;;;;;;;8.97;87.46;99204.34;5052203;28;20086;-68
2023/02/01 11:17:09;;;;;;;44.10;7.13;;;;;;;8.98;87.88;99205.19;5051454;28;20115;-68
2023/02/01 11:19:34;;;;;;;57.15;7.35;;;;;;;9.06;87.75;99191.44;5052990;28;20056;-68
2023/02/01 11:22:00;;;;;;;49.22;6.95;;;;;;;9.15;87.86;99198.94;5052502;28;20072;-69
2023/02/01 11:24:35;;;;;;;43.75;6.95;;;;;;;9.22;87.17;99190.78;5052599;28;20025;-68
2023/02/01 11:27:03;;;;;;;51.30;7.65;;;;;;;9.23;87.03;99202.34;5052423;28;20028;-68
2023/02/01 11:29:38;;;;;;;44.72;6.32;;;;;;;9.03;88.43;99191.88;5052390;28;20036;-69
2023/02/01 11:32:04;;;;;;;41.33;6.40;;;;;;;8.80;88.78;99214.88;5052728;28;20488;-69
2023/02/01 11:34:40;;;;;;;22.73;3.88;;;;;;;8.60;88.18;99184.84;5053296;28;20123;-68
2023/02/01 11:37:29;;;;;;;28.15;4.50;;;;;;;8.74;87.48;99204.25;5048626;28;20029;-68
2023/02/01 11:40:04;;;;;;;21.02;3.22;;;;;;;8.82;86.92;99215.50;5051925;28;20035;-69
2023/02/01 11:42:30;;;;;;;20.50;3.80;;;;;;;8.92;86.23;99210.41;5052697;28;20083;-69
2023/02/01 11:45:17;;;;;;;27.58;4.03;;;;;;;8.85;86.28;99217.72;5052774;28;20578;-68
2023/02/01 11:47:42;;;;;;;24.95;3.67;;;;;;;9.00;85.53;99216.50;5052451;28;20032;-68
2023/02/01 11:50:44;;;;;;;24.90;4.07;;;;;;;9.12;84.82;99214.69;5050996;28;20029;-68
2023/02/01 11:53:27;;;;;;;31.15;4.95;;;;;;;9.01;85.38;99215.47;5044992;28;20092;-69
2023/02/01 11:56:15;;;;;;;28.27;4.82;;;;;;;8.67;85.33;99156.88;5050519;28;20028;-68
2023/02/01 11:58:43;;;;;;;24.52;4.40;;;;;;;9.01;86.38;99212.78;5052535;28;20098;-68
2023/02/01 12:01:58;;;;;;;27.15;4.00;;;;;;;9.16;85.32;99207.81;5051056;28;20025;-69
2023/02/01 12:04:46;;;;;;;19.92;3.20;;;;;;;8.99;86.34;99212.19;5027126;28;20029;-69
2023/02/01 12:07:33;;;;;;;39.92;5.38;;;;;;;9.14;85.29;99201.88;5052035;28;20044;-69
2023/02/01 12:10:47;;;;;;;28.45;3.95;;;;;;;9.31;84.03;99208.19;5051824;28;20387;-68